createdAt,value
2018-03-20T00:00:52.766Z,-9.74
2018-03-20T00:01:51.651Z,-9.77
2018-03-20T00:02:52.031Z,-9.78
2018-03-20T00:03:51.402Z,-9.85
2018-03-20T00:04:51.341Z,-9.87
2018-03-20T00:05:54.036Z,-9.79
2018-03-20T00:06:51.208Z,-9.81
2018-03-20T00:07:51.034Z,-9.77
2018-03-20T00:08:52.535Z,-9.78
2018-03-20T00:09:50.791Z,-9.77
2018-03-20T00:10:51.783Z,-9.84
2018-03-20T00:11:50.628Z,-9.79
2018-03-20T00:12:50.531Z,-9.81
2018-03-20T00:13:50.388Z,-9.97
2018-03-20T00:14:50.297Z,-10.02
2018-03-20T00:15:50.125Z,-10.08
2018-03-20T00:16:50.064Z,-9.97
2018-03-20T00:17:49.987Z,-10.02
2018-03-20T00:18:49.924Z,-9.99
2018-03-20T00:19:49.758Z,-9.93
2018-03-20T00:20:50.188Z,-9.90
2018-03-20T00:21:49.510Z,-9.95
2018-03-20T00:22:49.437Z,-9.95
2018-03-20T00:23:49.350Z,-9.97
2018-03-20T00:24:49.291Z,-10.02
2018-03-20T00:25:49.091Z,-9.97
2018-03-20T00:26:49.006Z,-9.97
2018-03-20T00:27:48.913Z,-9.95
2018-03-20T00:28:48.797Z,-9.88
2018-03-20T00:29:48.688Z,-9.84
2018-03-20T00:30:49.532Z,-9.93
2018-03-20T00:31:48.436Z,-9.99
2018-03-20T00:32:49.202Z,-9.97
2018-03-20T00:33:48.257Z,-10.02
2018-03-20T00:34:48.197Z,-9.95
2018-03-20T00:35:48.739Z,-10.02
2018-03-20T00:36:48.017Z,-10.11
2018-03-20T00:37:47.813Z,-10.00
2018-03-20T00:38:47.716Z,-10.02
2018-03-20T00:39:47.613Z,-9.99
2018-03-20T00:40:48.031Z,-9.92
2018-03-20T00:41:47.425Z,-9.81
2018-03-20T00:42:47.351Z,-9.87
2018-03-20T00:43:47.175Z,-9.92
2018-03-20T00:44:47.112Z,-10.00
2018-03-20T00:45:47.530Z,-9.95
2018-03-20T00:46:46.862Z,-10.03
2018-03-20T00:47:46.742Z,-10.02
2018-03-20T00:48:46.743Z,-10.00
2018-03-20T00:49:46.578Z,-9.88
2018-03-20T00:50:47.034Z,-9.90
2018-03-20T00:51:46.370Z,-9.92
2018-03-20T00:52:46.241Z,-9.90
2018-03-20T00:53:46.139Z,-9.93
2018-03-20T00:54:46.746Z,-9.92
2018-03-20T00:55:45.929Z,-10.00
2018-03-20T00:56:45.839Z,-10.05
2018-03-20T00:57:45.734Z,-10.06
2018-03-20T00:58:45.639Z,-10.10
2018-03-20T00:59:45.526Z,-10.10
2018-03-20T01:00:45.439Z,-10.17
2018-03-20T01:01:45.285Z,-10.23
2018-03-20T01:02:45.183Z,-10.34
2018-03-20T01:03:45.102Z,-10.28
2018-03-20T01:04:44.984Z,-10.35
2018-03-20T01:05:44.900Z,-10.21
2018-03-20T01:06:44.860Z,-10.18
2018-03-20T01:07:44.702Z,-10.34
2018-03-20T01:08:44.557Z,-10.46
2018-03-20T01:09:44.455Z,-10.46
2018-03-20T01:10:44.353Z,-10.50
2018-03-20T01:11:45.032Z,-10.46
2018-03-20T01:12:44.157Z,-10.46
2018-03-20T01:13:44.037Z,-10.44
2018-03-20T01:14:43.944Z,-10.47
2018-03-20T01:15:44.534Z,-10.52
2018-03-20T01:16:44.537Z,-10.44
2018-03-20T01:17:43.617Z,-10.34
2018-03-20T01:18:44.536Z,-10.21
2018-03-20T01:19:43.435Z,-10.18
2018-03-20T01:20:43.281Z,-10.26
2018-03-20T01:21:43.202Z,-10.31
2018-03-20T01:22:43.155Z,-10.29
2018-03-20T01:23:42.983Z,-10.26
2018-03-20T01:24:42.867Z,-10.21
2018-03-20T01:25:42.764Z,-10.21
2018-03-20T01:26:42.633Z,-10.24
2018-03-20T01:27:42.556Z,-10.26
2018-03-20T01:28:42.509Z,-10.26
2018-03-20T01:29:42.344Z,-10.29
2018-03-20T01:30:42.235Z,-10.31
2018-03-20T01:31:43.037Z,-10.24
2018-03-20T01:32:56.724Z,-10.38
2018-03-20T01:33:41.938Z,-10.42
2018-03-20T01:34:41.886Z,-10.41
2018-03-20T01:35:41.702Z,-10.38
2018-03-20T01:36:41.610Z,-10.38
2018-03-20T01:37:41.500Z,-10.49
2018-03-20T01:38:41.389Z,-10.53
2018-03-20T01:39:41.259Z,-10.47
2018-03-20T01:40:41.197Z,-10.42
2018-03-20T01:41:41.052Z,-10.47
2018-03-20T01:42:40.966Z,-10.66
2018-03-20T01:44:01.832Z,-10.62
2018-03-20T01:44:41.532Z,-10.67
2018-03-20T01:45:40.696Z,-10.62
2018-03-20T01:46:40.534Z,-10.59
2018-03-20T01:47:40.410Z,-10.53
2018-03-20T01:48:40.324Z,-10.44
2018-03-20T01:49:41.033Z,-10.37
2018-03-20T01:50:40.092Z,-10.35
2018-03-20T01:51:40.023Z,-10.28
2018-03-20T01:52:39.893Z,-10.37
2018-03-20T01:54:04.719Z,-10.42
2018-03-20T01:54:39.679Z,-10.39
2018-03-20T01:55:39.588Z,-10.53
2018-03-20T01:56:39.511Z,-10.52
2018-03-20T01:57:39.367Z,-10.60
2018-03-20T01:58:39.260Z,-10.50
2018-03-20T01:59:40.040Z,-10.49
2018-03-20T02:00:39.026Z,-10.55
2018-03-20T02:01:38.941Z,-10.39
2018-03-20T02:02:39.539Z,-10.37
2018-03-20T02:03:38.726Z,-10.32
2018-03-20T02:04:46.209Z,-10.31
2018-03-20T02:05:38.521Z,-10.46
2018-03-20T02:06:38.424Z,-10.37
2018-03-20T02:07:38.309Z,-10.46
2018-03-20T02:08:38.255Z,-10.47
2018-03-20T02:09:38.102Z,-10.59
2018-03-20T02:10:37.984Z,-10.71
2018-03-20T02:11:37.876Z,-10.76
2018-03-20T02:12:37.768Z,-10.74
2018-03-20T02:13:38.532Z,-10.80
2018-03-20T02:14:37.604Z,-10.86
2018-03-20T02:15:37.466Z,-10.85
2018-03-20T02:16:37.309Z,-10.78
2018-03-20T02:17:37.239Z,-10.86
2018-03-20T02:18:37.141Z,-10.76
2018-03-20T02:19:37.042Z,-10.85
2018-03-20T02:20:36.962Z,-10.81
2018-03-20T02:21:36.810Z,-10.86
2018-03-20T02:22:36.708Z,-10.89
2018-03-20T02:23:36.594Z,-10.77
2018-03-20T02:24:37.036Z,-10.73
2018-03-20T02:25:36.379Z,-10.63
2018-03-20T02:26:38.045Z,-10.71
2018-03-20T02:27:36.168Z,-10.78
2018-03-20T02:28:36.074Z,-10.85
2018-03-20T02:29:35.970Z,-10.86
2018-03-20T02:30:35.857Z,-10.85
2018-03-20T02:31:35.725Z,-10.89
2018-03-20T02:32:35.688Z,-10.96
2018-03-20T02:33:35.570Z,-10.99
2018-03-20T02:34:35.452Z,-10.99
2018-03-20T02:35:35.299Z,-10.98
2018-03-20T02:36:35.225Z,-10.96
2018-03-20T02:37:35.133Z,-10.98
2018-03-20T02:38:35.536Z,-11.06
2018-03-20T02:39:34.912Z,-11.06
2018-03-20T02:40:38.541Z,-10.98
2018-03-20T02:41:34.688Z,-10.99
2018-03-20T02:42:34.586Z,-11.10
2018-03-20T02:43:34.481Z,-11.02
2018-03-20T02:44:34.438Z,-11.13
2018-03-20T02:45:34.238Z,-11.38
2018-03-20T02:46:34.157Z,-11.35
2018-03-20T02:47:34.078Z,-11.28
2018-03-20T02:48:33.884Z,-11.37
2018-03-20T02:49:33.851Z,-11.32
2018-03-20T02:50:33.773Z,-11.27
2018-03-20T02:51:33.605Z,-11.34
2018-03-20T02:52:33.520Z,-11.34
2018-03-20T02:53:33.431Z,-11.20
2018-03-20T02:54:33.276Z,-11.22
2018-03-20T02:55:33.167Z,-11.25
2018-03-20T02:56:33.146Z,-11.17
2018-03-20T02:57:32.952Z,-11.22
2018-03-20T02:58:32.908Z,-11.10
2018-03-20T02:59:32.770Z,-11.13
2018-03-20T03:00:32.663Z,-11.13
2018-03-20T03:01:32.548Z,-11.04
2018-03-20T03:02:32.524Z,-11.09
2018-03-20T03:03:32.348Z,-11.13
2018-03-20T03:04:32.249Z,-11.11
2018-03-20T03:05:32.111Z,-11.24
2018-03-20T03:06:32.027Z,-11.14
2018-03-20T03:07:31.880Z,-11.24
2018-03-20T03:08:31.831Z,-11.14
2018-03-20T03:09:31.701Z,-11.11
2018-03-20T03:10:31.600Z,-11.02
2018-03-20T03:11:31.472Z,-10.95
2018-03-20T03:12:31.386Z,-10.93
2018-03-20T03:13:31.285Z,-10.89
2018-03-20T03:14:31.217Z,-10.86
2018-03-20T03:15:31.069Z,-10.88
2018-03-20T03:16:30.957Z,-10.90
2018-03-20T03:17:30.854Z,-10.89
2018-03-20T03:18:30.731Z,-10.88
2018-03-20T03:19:30.647Z,-10.88
2018-03-20T03:20:30.565Z,-10.99
2018-03-20T03:21:30.437Z,-10.98
2018-03-20T03:22:30.267Z,-11.06
2018-03-20T03:23:30.212Z,-11.22
2018-03-20T03:24:30.066Z,-11.25
2018-03-20T03:25:29.981Z,-11.31
2018-03-20T03:26:29.926Z,-11.27
2018-03-20T03:27:30.528Z,-11.27
2018-03-20T03:28:29.675Z,-11.16
2018-03-20T03:29:29.615Z,-11.09
2018-03-20T03:30:29.466Z,-11.02
2018-03-20T03:31:29.371Z,-10.89
2018-03-20T03:32:29.298Z,-10.90
2018-03-20T03:33:29.136Z,-11.06
2018-03-20T03:34:29.047Z,-11.11
2018-03-20T03:35:28.933Z,-11.13
2018-03-20T03:36:28.815Z,-11.16
2018-03-20T03:37:28.773Z,-11.19
2018-03-20T03:38:28.656Z,-11.19
2018-03-20T03:39:29.532Z,-11.25
2018-03-20T03:40:28.399Z,-11.24
2018-03-20T03:41:28.289Z,-11.19
2018-03-20T03:42:28.163Z,-11.27
2018-03-20T03:43:28.079Z,-11.27
2018-03-20T03:44:28.007Z,-11.31
2018-03-20T03:45:27.863Z,-11.42
2018-03-20T03:46:27.762Z,-11.42
2018-03-20T03:47:27.643Z,-11.37
2018-03-20T03:48:27.553Z,-11.32
2018-03-20T03:49:27.459Z,-11.35
2018-03-20T03:50:27.374Z,-11.28
2018-03-20T03:51:27.215Z,-11.24
2018-03-20T03:52:27.120Z,-11.34
2018-03-20T03:53:27.038Z,-11.32
2018-03-20T03:54:26.923Z,-11.35
2018-03-20T03:55:26.785Z,-11.42
2018-03-20T03:56:26.757Z,-11.39
2018-03-20T03:57:26.589Z,-11.38
2018-03-20T03:58:26.437Z,-11.49
2018-03-20T03:59:26.363Z,-11.37
2018-03-20T04:00:26.300Z,-11.38
2018-03-20T04:01:27.036Z,-11.19
2018-03-20T04:02:26.093Z,-11.06
2018-03-20T04:03:25.928Z,-11.07
2018-03-20T04:04:25.837Z,-10.96
2018-03-20T04:05:25.754Z,-10.99
2018-03-20T04:06:25.627Z,-10.86
2018-03-20T04:07:25.524Z,-10.89
2018-03-20T04:08:25.501Z,-11.09
2018-03-20T04:09:25.281Z,-11.13
2018-03-20T04:10:25.211Z,-11.09
2018-03-20T04:11:25.072Z,-11.19
2018-03-20T04:12:24.974Z,-11.14
2018-03-20T04:13:24.872Z,-11.06
2018-03-20T04:14:24.855Z,-11.04
2018-03-20T04:15:24.650Z,-11.04
2018-03-20T04:16:24.538Z,-11.10
2018-03-20T04:17:24.443Z,-11.10
2018-03-20T04:18:24.325Z,-11.04
2018-03-20T04:19:24.220Z,-11.17
2018-03-20T04:20:24.160Z,-11.20
2018-03-20T04:21:24.022Z,-11.37
2018-03-20T04:22:23.869Z,-11.43
2018-03-20T04:23:23.769Z,-11.34
2018-03-20T04:24:23.698Z,-11.19
2018-03-20T04:25:23.598Z,-11.06
2018-03-20T04:26:23.532Z,-10.95
2018-03-20T04:27:23.388Z,-10.90
2018-03-20T04:28:23.291Z,-10.89
2018-03-20T04:29:23.216Z,-10.89
2018-03-20T04:30:23.127Z,-10.89
2018-03-20T04:31:22.915Z,-10.98
2018-03-20T04:32:22.987Z,-10.99
2018-03-20T04:33:22.776Z,-10.98
2018-03-20T04:34:22.655Z,-11.09
2018-03-20T04:35:22.494Z,-11.22
2018-03-20T04:36:22.417Z,-11.24
2018-03-20T04:37:22.342Z,-11.27
2018-03-20T04:38:22.246Z,-11.28
2018-03-20T04:39:22.530Z,-11.16
2018-03-20T04:40:21.964Z,-11.14
2018-03-20T04:41:21.883Z,-11.20
2018-03-20T04:42:21.787Z,-11.20
2018-03-20T04:43:21.685Z,-11.25
2018-03-20T04:44:21.765Z,-11.29
2018-03-20T04:45:21.491Z,-11.28
2018-03-20T04:46:21.342Z,-11.35
2018-03-20T04:47:21.245Z,-11.39
2018-03-20T04:48:21.139Z,-11.39
2018-03-20T04:49:21.017Z,-11.38
2018-03-20T04:50:20.966Z,-11.35
2018-03-20T04:51:20.813Z,-11.27
2018-03-20T04:52:20.717Z,-11.25
2018-03-20T04:53:20.620Z,-11.16
2018-03-20T04:54:20.489Z,-11.25
2018-03-20T04:55:20.415Z,-11.22
2018-03-20T04:56:20.325Z,-11.13
2018-03-20T04:57:20.167Z,-11.17
2018-03-20T04:58:20.043Z,-11.13
2018-03-20T04:59:19.968Z,-11.07
2018-03-20T05:00:19.863Z,-11.22
2018-03-20T05:01:19.767Z,-11.20
2018-03-20T05:02:19.682Z,-11.20
2018-03-20T05:03:19.566Z,-11.20
2018-03-20T05:04:19.495Z,-11.17
2018-03-20T05:05:19.337Z,-11.11
2018-03-20T05:06:19.187Z,-11.17
2018-03-20T05:07:19.104Z,-11.28
2018-03-20T05:08:19.089Z,-11.43
2018-03-20T05:09:18.917Z,-11.31
2018-03-20T05:10:18.793Z,-11.28
2018-03-20T05:11:18.696Z,-11.22
2018-03-20T05:12:18.574Z,-11.17
2018-03-20T05:13:18.487Z,-11.20
2018-03-20T05:14:18.399Z,-11.22
2018-03-20T05:15:18.253Z,-11.34
2018-03-20T05:16:18.159Z,-11.39
2018-03-20T05:17:18.053Z,-11.37
2018-03-20T05:18:17.939Z,-11.31
2018-03-20T05:19:17.815Z,-11.42
2018-03-20T05:20:17.801Z,-11.34
2018-03-20T05:21:17.627Z,-11.22
2018-03-20T05:22:19.040Z,-11.34
2018-03-20T05:23:17.369Z,-11.28
2018-03-20T05:24:17.316Z,-11.29
2018-03-20T05:25:17.171Z,-11.39
2018-03-20T05:26:17.297Z,-11.42
2018-03-20T05:27:16.952Z,-11.46
2018-03-20T05:28:16.833Z,-11.52
2018-03-20T05:29:16.747Z,-11.56
2018-03-20T05:30:16.646Z,-11.67
2018-03-20T05:31:16.547Z,-11.70
2018-03-20T05:32:16.505Z,-11.70
2018-03-20T05:33:16.357Z,-11.55
2018-03-20T05:34:16.262Z,-11.42
2018-03-20T05:35:16.123Z,-11.27
2018-03-20T05:36:16.023Z,-11.10
2018-03-20T05:37:15.932Z,-11.00
2018-03-20T05:38:15.862Z,-10.96
2018-03-20T05:39:15.698Z,-10.90
2018-03-20T05:40:15.623Z,-10.93
2018-03-20T05:41:15.500Z,-11.02
2018-03-20T05:42:15.411Z,-10.98
2018-03-20T05:43:15.300Z,-10.96
2018-03-20T05:44:15.248Z,-10.98
2018-03-20T05:45:15.082Z,-10.89
2018-03-20T05:46:14.956Z,-10.80
2018-03-20T05:47:14.862Z,-10.59
2018-03-20T05:48:16.533Z,-10.56
2018-03-20T05:49:14.652Z,-10.56
2018-03-20T05:50:14.576Z,-10.62
2018-03-20T05:51:15.028Z,-10.57
2018-03-20T05:52:14.316Z,-10.53
2018-03-20T05:53:14.215Z,-10.59
2018-03-20T05:54:14.096Z,-10.56
2018-03-20T05:55:14.027Z,-10.59
2018-03-20T05:56:13.958Z,-10.62
2018-03-20T05:57:13.811Z,-10.60
2018-03-20T05:58:13.697Z,-10.68
2018-03-20T05:59:13.565Z,-10.70
2018-03-20T06:00:13.483Z,-10.74
2018-03-20T06:01:13.373Z,-10.73
2018-03-20T06:02:13.291Z,-10.74
2018-03-20T06:03:13.119Z,-10.85
2018-03-20T06:04:13.027Z,-10.73
2018-03-20T06:05:12.914Z,-10.56
2018-03-20T06:06:12.790Z,-10.44
2018-03-20T06:07:12.697Z,-10.44
2018-03-20T06:08:12.684Z,-10.41
2018-03-20T06:09:12.536Z,-10.34
2018-03-20T06:10:12.369Z,-10.29
2018-03-20T06:11:13.027Z,-10.26
2018-03-20T06:12:12.183Z,-10.18
2018-03-20T06:13:12.117Z,-10.24
2018-03-20T06:14:12.030Z,-10.03
2018-03-20T06:15:11.863Z,-10.02
2018-03-20T06:16:11.773Z,-9.95
2018-03-20T06:17:11.681Z,-9.87
2018-03-20T06:18:11.565Z,-9.74
2018-03-20T06:19:11.476Z,-9.64
2018-03-20T06:20:11.453Z,-9.49
2018-03-20T06:21:11.228Z,-9.39
2018-03-20T06:22:11.135Z,-9.30
2018-03-20T06:23:11.019Z,-9.21
2018-03-20T06:24:10.924Z,-9.02
2018-03-20T06:25:10.827Z,-8.88
2018-03-20T06:26:10.772Z,-8.71
2018-03-20T06:27:10.611Z,-8.52
2018-03-20T06:28:10.522Z,-8.43
2018-03-20T06:29:10.420Z,-8.21
2018-03-20T06:30:10.317Z,-8.14
2018-03-20T06:31:10.182Z,-8.08
2018-03-20T06:32:10.099Z,-7.99
2018-03-20T06:33:09.952Z,-7.71
2018-03-20T06:34:09.863Z,-7.55
2018-03-20T06:35:09.758Z,-7.35
2018-03-20T06:36:09.667Z,-7.18
2018-03-20T06:37:09.584Z,-7.05
2018-03-20T06:38:09.488Z,-6.79
2018-03-20T06:39:09.324Z,-6.67
2018-03-20T06:40:09.240Z,-6.41
2018-03-20T06:41:09.166Z,-6.03
2018-03-20T06:42:09.525Z,-5.75
2018-03-20T06:43:08.943Z,-5.42
2018-03-20T06:44:08.875Z,-4.93
2018-03-20T06:45:08.762Z,-4.49
2018-03-20T06:46:08.621Z,-4.26
2018-03-20T06:47:08.528Z,-4.16
2018-03-20T06:48:08.432Z,-4.12
2018-03-20T06:49:08.325Z,-4.19
2018-03-20T06:50:08.260Z,-4.19
2018-03-20T06:51:08.128Z,-4.36
2018-03-20T06:52:08.030Z,-4.56
2018-03-20T06:53:07.929Z,-4.65
2018-03-20T06:54:07.823Z,-4.74
2018-03-20T06:55:07.727Z,-4.84
2018-03-20T06:56:08.525Z,-4.93
2018-03-20T06:57:07.520Z,-4.95
2018-03-20T06:58:07.429Z,-5.05
2018-03-20T06:59:07.314Z,-5.03
2018-03-20T07:00:07.235Z,-5.11
2018-03-20T07:01:07.089Z,-5.20
2018-03-20T07:02:07.086Z,-5.28
2018-03-20T07:03:08.535Z,-5.24
2018-03-20T07:04:06.816Z,-5.21
2018-03-20T07:05:07.529Z,-5.17
2018-03-20T07:06:06.620Z,-5.17
2018-03-20T07:07:06.530Z,-5.17
2018-03-20T07:08:06.476Z,-5.11
2018-03-20T07:09:06.325Z,-5.23
2018-03-20T07:10:06.215Z,-5.17
2018-03-20T07:11:06.136Z,-5.09
2018-03-20T07:12:06.028Z,-5.11
2018-03-20T07:13:05.889Z,-4.87
2018-03-20T07:14:05.853Z,-4.83
2018-03-20T07:15:05.734Z,-4.69
2018-03-20T07:16:05.605Z,-4.55
2018-03-20T07:17:05.516Z,-4.41
2018-03-20T07:18:05.427Z,-4.26
2018-03-20T07:19:05.338Z,-4.16
2018-03-20T07:20:05.269Z,-3.97
2018-03-20T07:21:05.128Z,-3.91
2018-03-20T07:22:05.035Z,-3.79
2018-03-20T07:23:05.538Z,-3.52
2018-03-20T07:24:04.815Z,-3.65
2018-03-20T07:25:04.726Z,-3.49
2018-03-20T07:26:04.660Z,-3.40
2018-03-20T07:27:04.540Z,-3.30
2018-03-20T07:28:05.033Z,-3.08
2018-03-20T07:29:04.324Z,-3.07
2018-03-20T07:30:04.180Z,-3.08
2018-03-20T07:31:04.116Z,-2.98
2018-03-20T07:32:04.079Z,-2.87
2018-03-20T07:33:03.897Z,-2.86
2018-03-20T07:34:04.715Z,-3.04
2018-03-20T07:35:03.711Z,-3.04
2018-03-20T07:36:03.669Z,-2.90
2018-03-20T07:37:04.031Z,-2.80
2018-03-20T07:38:03.460Z,-2.74
2018-03-20T07:39:03.304Z,-2.56
2018-03-20T07:40:03.218Z,-2.62
2018-03-20T07:41:03.118Z,-2.65
2018-03-20T07:42:03.045Z,-2.69
2018-03-20T07:43:02.954Z,-2.56
2018-03-20T07:44:03.527Z,-2.59
2018-03-20T07:45:02.740Z,-2.61
2018-03-20T07:46:02.655Z,-2.47
2018-03-20T07:47:02.535Z,-2.48
2018-03-20T07:48:02.440Z,-2.50
2018-03-20T07:49:03.031Z,-2.38
2018-03-20T07:50:02.281Z,-2.24
2018-03-20T07:51:02.143Z,-2.33
2018-03-20T07:52:02.052Z,-2.04
2018-03-20T07:53:01.955Z,-1.90
2018-03-20T07:54:01.842Z,-1.72
2018-03-20T07:55:01.757Z,-1.86
2018-03-20T07:56:01.698Z,-1.56
2018-03-20T07:57:01.565Z,-1.23
2018-03-20T07:58:01.473Z,-0.92
2018-03-20T07:59:01.368Z,-0.83
2018-03-20T08:00:01.235Z,-0.71
2018-03-20T08:01:01.142Z,-0.89
2018-03-20T08:02:01.091Z,-0.93
2018-03-20T08:03:00.936Z,-1.05
2018-03-20T08:04:00.815Z,-1.00
2018-03-20T08:05:00.725Z,-0.76
2018-03-20T08:06:00.625Z,-0.90
2018-03-20T08:07:00.513Z,-0.68
2018-03-20T08:08:00.521Z,-0.65
2018-03-20T08:09:00.314Z,-0.60
2018-03-20T08:10:00.219Z,-0.70
2018-03-20T08:11:00.125Z,-0.59
2018-03-20T08:12:00.020Z,-0.56
2018-03-20T08:12:59.924Z,-0.58
2018-03-20T08:13:59.868Z,-0.71
2018-03-20T08:14:59.726Z,-0.67
2018-03-20T08:15:59.624Z,-0.65
2018-03-20T08:16:59.543Z,-0.58
2018-03-20T08:17:59.404Z,-0.59
2018-03-20T08:18:59.325Z,-0.47
2018-03-20T08:19:59.287Z,-0.26
2018-03-20T08:20:59.107Z,-0.23
2018-03-20T08:21:59.045Z,-0.24
2018-03-20T08:22:58.945Z,-0.17
2018-03-20T08:23:58.862Z,-0.65
2018-03-20T08:24:58.767Z,-1.25
2018-03-20T08:25:58.725Z,-1.32
2018-03-20T08:26:58.549Z,-1.54
2018-03-20T08:27:58.433Z,-1.65
2018-03-20T08:28:58.395Z,-1.59
2018-03-20T08:29:58.269Z,-1.72
2018-03-20T08:30:58.171Z,-1.75
2018-03-20T08:31:58.128Z,-1.78
2018-03-20T08:32:58.003Z,-1.71
2018-03-20T08:33:57.873Z,-1.89
2018-03-20T08:34:57.763Z,-2.03
2018-03-20T08:35:57.683Z,-2.00
2018-03-20T08:36:57.589Z,-1.86
2018-03-20T08:37:57.543Z,-1.85
2018-03-20T08:38:57.381Z,-1.77
2018-03-20T08:39:57.288Z,-1.47
2018-03-20T08:40:57.188Z,-1.39
2018-03-20T08:41:57.090Z,-1.31
2018-03-20T08:42:56.994Z,-1.07
2018-03-20T08:43:56.917Z,-1.00
2018-03-20T08:44:56.794Z,-0.92
2018-03-20T08:45:56.693Z,-0.74
2018-03-20T08:46:56.608Z,-0.83
2018-03-20T08:47:56.474Z,-0.68
2018-03-20T08:48:56.407Z,-0.52
2018-03-20T08:49:56.409Z,-0.45
2018-03-20T08:50:56.226Z,-0.39
2018-03-20T08:51:56.123Z,-0.38
2018-03-20T08:52:56.020Z,-0.19
2018-03-20T08:53:55.926Z,-0.20
2018-03-20T08:54:55.831Z,-0.08
2018-03-20T08:55:55.758Z,-0.20
2018-03-20T08:56:55.622Z,-0.30
2018-03-20T08:57:55.541Z,-0.26
2018-03-20T08:58:55.406Z,-0.45
2018-03-20T08:59:55.341Z,-0.86
2018-03-20T09:00:55.238Z,-0.85
2018-03-20T09:01:55.199Z,-0.81
2018-03-20T09:02:55.044Z,-0.67
2018-03-20T09:03:54.935Z,-1.28
2018-03-20T09:04:54.847Z,-0.99
2018-03-20T09:05:54.750Z,-0.92
2018-03-20T09:06:54.652Z,-0.77
2018-03-20T09:07:54.591Z,-0.68
2018-03-20T09:08:54.465Z,-0.63
2018-03-20T09:09:54.355Z,-0.47
2018-03-20T09:10:54.255Z,-0.55
2018-03-20T09:11:54.175Z,-0.39
2018-03-20T09:12:54.057Z,-0.44
2018-03-20T09:13:54.010Z,-0.39
2018-03-20T09:14:53.879Z,-0.41
2018-03-20T09:15:53.784Z,-0.42
2018-03-20T09:16:53.705Z,-0.20
2018-03-20T09:17:53.589Z,0.07
2018-03-20T09:18:53.496Z,0.33
2018-03-20T09:19:53.464Z,0.41
2018-03-20T09:20:53.308Z,-0.09
2018-03-20T09:21:53.192Z,-0.09
2018-03-20T09:22:53.088Z,-0.14
2018-03-20T09:23:52.953Z,-0.17
2018-03-20T09:24:52.924Z,0.02
2018-03-20T09:25:52.837Z,-0.19
2018-03-20T09:26:52.704Z,-0.20
2018-03-20T09:27:52.629Z,-0.42
2018-03-20T09:28:52.515Z,-0.41
2018-03-20T09:29:52.439Z,-0.24
2018-03-20T09:30:52.311Z,-0.21
2018-03-20T09:31:52.237Z,-0.21
2018-03-20T09:32:52.123Z,-0.21
2018-03-20T09:33:52.010Z,-0.26
2018-03-20T09:34:51.894Z,-0.35
2018-03-20T09:35:51.838Z,-0.27
2018-03-20T09:36:51.736Z,-0.44
2018-03-20T09:37:51.700Z,-0.71
2018-03-20T09:38:51.525Z,-0.62
2018-03-20T09:39:51.440Z,-0.65
2018-03-20T09:40:51.345Z,-0.65
2018-03-20T09:41:51.249Z,-0.45
2018-03-20T09:42:51.155Z,-0.42
2018-03-20T09:43:51.069Z,-0.26
2018-03-20T09:44:50.959Z,-0.02
2018-03-20T09:45:50.858Z,0.15
2018-03-20T09:46:50.766Z,0.28
2018-03-20T09:47:50.649Z,0.57
2018-03-20T09:48:50.561Z,0.72
2018-03-20T09:49:50.495Z,0.93
2018-03-20T09:50:50.371Z,0.80
2018-03-20T09:51:50.267Z,0.90
2018-03-20T09:52:50.190Z,1.07
2018-03-20T09:53:50.101Z,0.99
2018-03-20T09:54:49.993Z,0.95
2018-03-20T09:55:49.970Z,1.21
2018-03-20T09:56:49.784Z,0.63
2018-03-20T09:57:49.684Z,0.01
2018-03-20T09:58:49.600Z,0.22
2018-03-20T09:59:49.475Z,0.37
2018-03-20T10:00:49.410Z,0.72
2018-03-20T10:01:50.048Z,0.59
2018-03-20T10:02:49.235Z,0.13
2018-03-20T10:03:49.114Z,0.19
2018-03-20T10:04:49.024Z,-0.20
2018-03-20T10:05:48.903Z,-0.20
2018-03-20T10:06:48.896Z,-0.03
2018-03-20T10:07:48.799Z,0.30
2018-03-20T10:08:48.665Z,0.31
2018-03-20T10:09:48.559Z,0.40
2018-03-20T10:10:48.450Z,0.59
2018-03-20T10:11:48.328Z,0.59
2018-03-20T10:12:48.267Z,0.60
2018-03-20T10:13:48.245Z,0.60
2018-03-20T10:14:48.060Z,0.38
2018-03-20T10:15:47.967Z,0.48
2018-03-20T10:16:47.860Z,0.51
2018-03-20T10:17:47.786Z,0.59
2018-03-20T10:18:47.675Z,0.68
2018-03-20T10:19:47.610Z,0.75
2018-03-20T10:20:47.467Z,0.48
2018-03-20T10:21:47.387Z,0.35
2018-03-20T10:22:47.254Z,0.35
2018-03-20T10:23:47.170Z,0.13
2018-03-20T10:24:47.089Z,-0.09
2018-03-20T10:25:47.022Z,-0.08
2018-03-20T10:26:46.862Z,0.08
2018-03-20T10:27:46.794Z,0.28
2018-03-20T10:28:46.683Z,0.38
2018-03-20T10:29:46.576Z,0.35
2018-03-20T10:30:46.480Z,0.37
2018-03-20T10:31:46.445Z,0.37
2018-03-20T10:32:46.318Z,0.30
2018-03-20T10:33:46.214Z,0.17
2018-03-20T10:34:46.131Z,0.37
2018-03-20T10:35:46.018Z,0.74
2018-03-20T10:36:45.945Z,0.80
2018-03-20T10:37:45.913Z,0.74
2018-03-20T10:38:45.733Z,0.90
2018-03-20T10:39:45.672Z,1.07
2018-03-20T10:40:45.549Z,0.99
2018-03-20T10:41:45.465Z,1.06
2018-03-20T10:42:45.368Z,1.11
2018-03-20T10:43:45.328Z,1.26
2018-03-20T10:44:45.172Z,1.31
2018-03-20T10:45:45.062Z,1.25
2018-03-20T10:46:44.969Z,1.39
2018-03-20T10:47:44.879Z,1.52
2018-03-20T10:48:44.804Z,1.65
2018-03-20T10:49:44.725Z,1.64
2018-03-20T10:50:44.581Z,1.88
2018-03-20T10:51:44.458Z,2.02
2018-03-20T10:52:44.413Z,2.11
2018-03-20T10:53:44.285Z,1.83
2018-03-20T10:54:44.198Z,1.57
2018-03-20T10:55:44.149Z,1.63
2018-03-20T10:56:43.984Z,1.82
2018-03-20T10:57:43.939Z,1.90
2018-03-20T10:58:43.819Z,2.07
2018-03-20T10:59:43.701Z,2.02
2018-03-20T11:00:43.628Z,2.01
2018-03-20T11:01:43.531Z,1.82
2018-03-20T11:02:43.437Z,1.26
2018-03-20T11:03:43.336Z,1.00
2018-03-20T11:04:43.226Z,0.93
2018-03-20T11:05:43.134Z,1.21
2018-03-20T11:06:43.059Z,1.02
2018-03-20T11:07:43.003Z,1.38
2018-03-20T11:08:42.863Z,1.44
2018-03-20T11:09:42.771Z,1.64
2018-03-20T11:10:42.666Z,1.60
2018-03-20T11:11:42.591Z,1.54
2018-03-20T11:12:42.500Z,1.61
2018-03-20T11:13:42.433Z,1.52
2018-03-20T11:14:42.311Z,1.63
2018-03-20T11:15:42.224Z,1.57
2018-03-20T11:16:42.104Z,1.38
2018-03-20T11:17:42.029Z,1.74
2018-03-20T11:18:41.944Z,1.90
2018-03-20T11:19:41.842Z,1.46
2018-03-20T11:20:41.729Z,1.85
2018-03-20T11:21:41.613Z,2.02
2018-03-20T11:22:41.544Z,1.93
2018-03-20T11:23:41.442Z,2.01
2018-03-20T11:24:41.376Z,2.33
2018-03-20T11:25:41.277Z,2.62
2018-03-20T11:26:41.151Z,2.83
2018-03-20T11:27:41.051Z,2.73
2018-03-20T11:28:40.964Z,2.83
2018-03-20T11:29:40.879Z,2.65
2018-03-20T11:30:40.745Z,2.98
2018-03-20T11:31:40.776Z,3.33
2018-03-20T11:32:40.587Z,3.20
2018-03-20T11:33:40.467Z,3.44
2018-03-20T11:34:40.372Z,3.62
2018-03-20T11:35:40.274Z,3.81
2018-03-20T11:36:40.195Z,3.68
2018-03-20T11:37:40.119Z,3.59
2018-03-20T11:38:40.003Z,3.60
2018-03-20T11:39:39.928Z,3.75
2018-03-20T11:40:39.804Z,3.75
2018-03-20T11:41:39.721Z,3.19
2018-03-20T11:42:39.633Z,3.44
2018-03-20T11:43:39.610Z,3.23
2018-03-20T11:44:39.456Z,3.04
2018-03-20T11:45:39.363Z,3.02
2018-03-20T11:46:39.270Z,2.97
2018-03-20T11:47:39.168Z,2.94
2018-03-20T11:48:39.099Z,2.59
2018-03-20T11:49:39.062Z,2.63
2018-03-20T11:50:38.909Z,2.58
2018-03-20T11:51:38.798Z,2.48
2018-03-20T11:52:38.742Z,2.44
2018-03-20T11:53:38.627Z,2.33
2018-03-20T11:54:38.510Z,2.14
2018-03-20T11:55:38.416Z,2.00
2018-03-20T11:56:38.295Z,2.02
2018-03-20T11:57:38.205Z,2.19
2018-03-20T11:58:38.129Z,2.45
2018-03-20T11:59:38.030Z,2.15
2018-03-20T12:00:37.926Z,2.12
2018-03-20T12:01:37.888Z,2.19
2018-03-20T12:02:37.753Z,2.04
2018-03-20T12:03:37.638Z,1.86
2018-03-20T12:04:37.547Z,2.12
2018-03-20T12:05:37.457Z,1.90
2018-03-20T12:06:37.372Z,2.01
2018-03-20T12:07:37.281Z,2.00
2018-03-20T12:08:37.169Z,2.09
2018-03-20T12:09:37.076Z,2.20
2018-03-20T12:10:36.975Z,2.11
2018-03-20T12:11:36.899Z,2.55
2018-03-20T12:12:36.818Z,2.65
2018-03-20T12:13:36.782Z,2.61
2018-03-20T12:14:36.621Z,2.38
2018-03-20T12:15:36.558Z,2.33
2018-03-20T12:16:36.585Z,2.43
2018-03-20T12:17:36.346Z,2.47
2018-03-20T12:18:36.256Z,2.15
2018-03-20T12:19:36.232Z,2.33
2018-03-20T12:20:36.051Z,2.53
2018-03-20T12:21:35.997Z,2.65
2018-03-20T12:22:35.871Z,2.62
2018-03-20T12:23:35.789Z,2.83
2018-03-20T12:24:35.742Z,3.13
2018-03-20T12:25:35.620Z,3.45
2018-03-20T12:26:35.471Z,3.64
2018-03-20T12:27:35.372Z,3.77
2018-03-20T12:28:35.303Z,4.08
2018-03-20T12:29:35.205Z,4.00
2018-03-20T12:30:35.141Z,4.24
2018-03-20T12:31:35.068Z,4.00
2018-03-20T12:32:34.954Z,3.92
2018-03-20T12:33:34.851Z,3.89
2018-03-20T12:34:34.732Z,4.02
2018-03-20T12:35:34.668Z,3.78
2018-03-20T12:36:34.572Z,3.78
2018-03-20T12:37:34.521Z,3.34
2018-03-20T12:38:34.360Z,3.54
2018-03-20T12:39:34.294Z,3.12
2018-03-20T12:40:34.191Z,3.05
2018-03-20T12:41:34.054Z,3.08
2018-03-20T12:42:34.015Z,3.13
2018-03-20T12:43:33.954Z,3.25
2018-03-20T12:44:33.847Z,3.52
2018-03-20T12:45:33.721Z,3.22
2018-03-20T12:46:33.700Z,3.22